sensor_id;sensor_type;location;lat;lon;timestamp;P1;durP1;ratioP1;P2;durP2;ratioP2
7503;SDS011;3793;48.136;11.536;2022-09-21T00:01:03;5.30;;;2.80;;
7503;SDS011;3793;48.136;11.536;2022-09-21T00:03:30;5.60;;;3.00;;
7503;SDS011;3793;48.136;11.536;2022-09-21T00:06:00;8.73;;;3.10;;
7503;SDS011;3793;48.136;11.536;2022-09-21T00:08:26;5.20;;;2.90;;
7503;SDS011;3793;48.136;11.536;2022-09-21T00:10:55;5.17;;;3.40;;
7503;SDS011;3793;48.136;11.536;2022-09-21T00:13:21;4.20;;;2.90;;
7503;SDS011;3793;48.136;11.536;2022-09-21T00:15:48;5.60;;;3.17;;
7503;SDS011;3793;48.136;11.536;2022-09-21T00:18:14;7.23;;;2.93;;
7503;SDS011;3793;48.136;11.536;2022-09-21T00:20:41;8.80;;;3.00;;
7503;SDS011;3793;48.136;11.536;2022-09-21T00:23:08;7.37;;;2.67;;
7503;SDS011;3793;48.136;11.536;2022-09-21T00:25:35;3.60;;;3.00;;
7503;SDS011;3793;48.136;11.536;2022-09-21T00:28:03;4.73;;;3.03;;
7503;SDS011;3793;48.136;11.536;2022-09-21T00:30:30;4.90;;;2.63;;
7503;SDS011;3793;48.136;11.536;2022-09-21T00:32:56;4.83;;;2.67;;
7503;SDS011;3793;48.136;11.536;2022-09-21T00:35:23;6.77;;;2.73;;
7503;SDS011;3793;48.136;11.536;2022-09-21T00:37:49;4.87;;;2.60;;
7503;SDS011;3793;48.136;11.536;2022-09-21T00:40:16;4.30;;;2.60;;
7503;SDS011;3793;48.136;11.536;2022-09-21T00:42:42;4.83;;;2.50;;
7503;SDS011;3793;48.136;11.536;2022-09-21T00:45:11;4.50;;;3.50;;
7503;SDS011;3793;48.136;11.536;2022-09-21T00:47:45;3.73;;;2.93;;
7503;SDS011;3793;48.136;11.536;2022-09-21T00:50:13;5.10;;;3.13;;
7503;SDS011;3793;48.136;11.536;2022-09-21T00:52:42;6.87;;;3.33;;
7503;SDS011;3793;48.136;11.536;2022-09-21T00:55:09;7.03;;;3.40;;
7503;SDS011;3793;48.136;11.536;2022-09-21T00:57:37;3.83;;;2.80;;
7503;SDS011;3793;48.136;11.536;2022-09-21T01:00:05;5.30;;;2.83;;
7503;SDS011;3793;48.136;11.536;2022-09-21T01:02:35;5.80;;;3.50;;
7503;SDS011;3793;48.136;11.536;2022-09-21T01:05:02;4.90;;;2.93;;
7503;SDS011;3793;48.136;11.536;2022-09-21T01:07:30;6.50;;;3.20;;
7503;SDS011;3793;48.136;11.536;2022-09-21T01:09:58;3.87;;;2.90;;
7503;SDS011;3793;48.136;11.536;2022-09-21T01:12:30;7.07;;;2.97;;
7503;SDS011;3793;48.136;11.536;2022-09-21T01:15:09;5.33;;;2.80;;
7503;SDS011;3793;48.136;11.536;2022-09-21T01:17:42;5.67;;;3.50;;
7503;SDS011;3793;48.136;11.536;2022-09-21T01:22:55;4.57;;;2.80;;
7503;SDS011;3793;48.136;11.536;2022-09-21T01:25:26;6.23;;;3.43;;
7503;SDS011;3793;48.136;11.536;2022-09-21T01:27:57;5.00;;;3.27;;
7503;SDS011;3793;48.136;11.536;2022-09-21T01:30:30;3.60;;;3.10;;
7503;SDS011;3793;48.136;11.536;2022-09-21T01:32:59;4.30;;;3.10;;
7503;SDS011;3793;48.136;11.536;2022-09-21T01:35:30;4.33;;;3.17;;
7503;SDS011;3793;48.136;11.536;2022-09-21T01:37:59;4.50;;;2.87;;
7503;SDS011;3793;48.136;11.536;2022-09-21T01:40:28;5.50;;;2.90;;
7503;SDS011;3793;48.136;11.536;2022-09-21T01:42:56;5.33;;;2.77;;
7503;SDS011;3793;48.136;11.536;2022-09-21T01:45:25;6.27;;;3.10;;
7503;SDS011;3793;48.136;11.536;2022-09-21T01:47:55;4.17;;;3.20;;
7503;SDS011;3793;48.136;11.536;2022-09-21T01:50:22;9.50;;;3.60;;
7503;SDS011;3793;48.136;11.536;2022-09-21T01:52:51;4.10;;;2.80;;
7503;SDS011;3793;48.136;11.536;2022-09-21T01:55:19;4.27;;;2.87;;
7503;SDS011;3793;48.136;11.536;2022-09-21T01:57:49;6.40;;;3.53;;
7503;SDS011;3793;48.136;11.536;2022-09-21T02:00:19;7.30;;;3.50;;
7503;SDS011;3793;48.136;11.536;2022-09-21T02:02:47;5.83;;;3.07;;
7503;SDS011;3793;48.136;11.536;2022-09-21T02:05:17;5.00;;;3.00;;
7503;SDS011;3793;48.136;11.536;2022-09-21T02:07:45;6.43;;;3.00;;
7503;SDS011;3793;48.136;11.536;2022-09-21T02:10:14;4.23;;;2.60;;
7503;SDS011;3793;48.136;11.536;2022-09-21T02:12:42;4.90;;;2.80;;
7503;SDS011;3793;48.136;11.536;2022-09-21T02:15:09;6.50;;;2.80;;
7503;SDS011;3793;48.136;11.536;2022-09-21T02:17:39;5.70;;;3.00;;
7503;SDS011;3793;48.136;11.536;2022-09-21T02:20:14;6.77;;;3.40;;
7503;SDS011;3793;48.136;11.536;2022-09-21T02:22:47;5.83;;;2.67;;
7503;SDS011;3793;48.136;11.536;2022-09-21T02:25:17;5.43;;;2.47;;
7503;SDS011;3793;48.136;11.536;2022-09-21T02:27:48;3.30;;;2.50;;
7503;SDS011;3793;48.136;11.536;2022-09-21T02:30:17;8.47;;;2.77;;
7503;SDS011;3793;48.136;11.536;2022-09-21T02:32:44;5.23;;;2.63;;
7503;SDS011;3793;48.136;11.536;2022-09-21T02:35:15;5.83;;;3.00;;
7503;SDS011;3793;48.136;11.536;2022-09-21T02:37:47;4.63;;;2.40;;
7503;SDS011;3793;48.136;11.536;2022-09-21T02:40:18;7.70;;;2.70;;
7503;SDS011;3793;48.136;11.536;2022-09-21T02:42:47;5.93;;;3.20;;
7503;SDS011;3793;48.136;11.536;2022-09-21T02:45:16;3.60;;;2.73;;
7503;SDS011;3793;48.136;11.536;2022-09-21T02:47:45;6.20;;;2.50;;
7503;SDS011;3793;48.136;11.536;2022-09-21T02:50:14;7.13;;;2.70;;
7503;SDS011;3793;48.136;11.536;2022-09-21T02:52:42;6.03;;;3.13;;
7503;SDS011;3793;48.136;11.536;2022-09-21T02:55:11;2.57;;;2.37;;
7503;SDS011;3793;48.136;11.536;2022-09-21T02:57:38;5.23;;;2.40;;
7503;SDS011;3793;48.136;11.536;2022-09-21T03:00:06;3.30;;;2.57;;
7503;SDS011;3793;48.136;11.536;2022-09-21T03:02:37;6.53;;;2.40;;
7503;SDS011;3793;48.136;11.536;2022-09-21T03:05:04;5.20;;;2.60;;
7503;SDS011;3793;48.136;11.536;2022-09-21T03:07:31;8.83;;;2.77;;
7503;SDS011;3793;48.136;11.536;2022-09-21T03:09:57;6.80;;;2.73;;
7503;SDS011;3793;48.136;11.536;2022-09-21T03:12:26;5.27;;;2.70;;
7503;SDS011;3793;48.136;11.536;2022-09-21T03:14:53;3.37;;;2.53;;
7503;SDS011;3793;48.136;11.536;2022-09-21T03:17:20;5.40;;;2.70;;
7503;SDS011;3793;48.136;11.536;2022-09-21T03:19:46;4.30;;;2.60;;
7503;SDS011;3793;48.136;11.536;2022-09-21T03:22:13;4.93;;;2.70;;
7503;SDS011;3793;48.136;11.536;2022-09-21T03:24:41;5.03;;;2.70;;
7503;SDS011;3793;48.136;11.536;2022-09-21T03:27:13;8.07;;;3.00;;
7503;SDS011;3793;48.136;11.536;2022-09-21T03:29:41;5.00;;;3.20;;
7503;SDS011;3793;48.136;11.536;2022-09-21T03:32:08;6.00;;;3.10;;
7503;SDS011;3793;48.136;11.536;2022-09-21T03:34:34;4.43;;;2.87;;
7503;SDS011;3793;48.136;11.536;2022-09-21T03:37:02;6.60;;;3.17;;
7503;SDS011;3793;48.136;11.536;2022-09-21T03:39:29;3.23;;;2.60;;
7503;SDS011;3793;48.136;11.536;2022-09-21T03:41:55;2.53;;;2.33;;
7503;SDS011;3793;48.136;11.536;2022-09-21T03:44:22;6.27;;;2.90;;
7503;SDS011;3793;48.136;11.536;2022-09-21T03:46:51;4.33;;;2.67;;
7503;SDS011;3793;48.136;11.536;2022-09-21T03:49:18;3.67;;;2.80;;
7503;SDS011;3793;48.136;11.536;2022-09-21T03:51:44;5.17;;;3.20;;
7503;SDS011;3793;48.136;11.536;2022-09-21T03:54:11;3.43;;;2.80;;
7503;SDS011;3793;48.136;11.536;2022-09-21T03:56:38;5.23;;;2.90;;
7503;SDS011;3793;48.136;11.536;2022-09-21T03:59:04;6.10;;;3.00;;
7503;SDS011;3793;48.136;11.536;2022-09-21T04:01:31;4.27;;;2.90;;
7503;SDS011;3793;48.136;11.536;2022-09-21T04:03:59;3.93;;;2.83;;
7503;SDS011;3793;48.136;11.536;2022-09-21T04:06:26;3.60;;;2.80;;
7503;SDS011;3793;48.136;11.536;2022-09-21T04:08:52;4.53;;;3.03;;
7503;SDS011;3793;48.136;11.536;2022-09-21T04:11:20;5.57;;;3.00;;
7503;SDS011;3793;48.136;11.536;2022-09-21T04:13:48;3.33;;;2.70;;
7503;SDS011;3793;48.136;11.536;2022-09-21T04:16:14;4.20;;;2.80;;
7503;SDS011;3793;48.136;11.536;2022-09-21T04:18:42;8.87;;;3.10;;
7503;SDS011;3793;48.136;11.536;2022-09-21T04:21:10;3.97;;;2.83;;
7503;SDS011;3793;48.136;11.536;2022-09-21T04:23:36;5.83;;;3.53;;
7503;SDS011;3793;48.136;11.536;2022-09-21T04:26:03;6.97;;;3.37;;
7503;SDS011;3793;48.136;11.536;2022-09-21T04:28:29;5.77;;;3.00;;
7503;SDS011;3793;48.136;11.536;2022-09-21T04:31:10;4.23;;;2.80;;
7503;SDS011;3793;48.136;11.536;2022-09-21T04:33:36;3.67;;;2.50;;
7503;SDS011;3793;48.136;11.536;2022-09-21T04:36:03;5.17;;;3.07;;
7503;SDS011;3793;48.136;11.536;2022-09-21T04:38:32;3.97;;;3.00;;
7503;SDS011;3793;48.136;11.536;2022-09-21T04:40:58;4.00;;;2.87;;
7503;SDS011;3793;48.136;11.536;2022-09-21T04:43:26;4.73;;;3.10;;
7503;SDS011;3793;48.136;11.536;2022-09-21T04:45:52;4.33;;;3.07;;
7503;SDS011;3793;48.136;11.536;2022-09-21T04:48:19;6.60;;;3.20;;
7503;SDS011;3793;48.136;11.536;2022-09-21T04:50:47;5.13;;;3.03;;
7503;SDS011;3793;48.136;11.536;2022-09-21T04:53:13;8.00;;;3.10;;
7503;SDS011;3793;48.136;11.536;2022-09-21T04:55:41;5.43;;;3.57;;
7503;SDS011;3793;48.136;11.536;2022-09-21T04:58:08;4.47;;;3.13;;
7503;SDS011;3793;48.136;11.536;2022-09-21T05:00:34;5.67;;;3.60;;
7503;SDS011;3793;48.136;11.536;2022-09-21T05:03:01;3.50;;;2.80;;
7503;SDS011;3793;48.136;11.536;2022-09-21T05:05:27;6.23;;;3.23;;
7503;SDS011;3793;48.136;11.536;2022-09-21T05:07:54;5.57;;;3.40;;
7503;SDS011;3793;48.136;11.536;2022-09-21T05:10:20;7.17;;;3.50;;
7503;SDS011;3793;48.136;11.536;2022-09-21T05:12:47;7.83;;;4.10;;
7503;SDS011;3793;48.136;11.536;2022-09-21T05:15:14;7.33;;;3.50;;
7503;SDS011;3793;48.136;11.536;2022-09-21T05:17:40;5.23;;;3.73;;
7503;SDS011;3793;48.136;11.536;2022-09-21T05:20:08;6.77;;;3.53;;
7503;SDS011;3793;48.136;11.536;2022-09-21T05:22:35;10.03;;;4.03;;
7503;SDS011;3793;48.136;11.536;2022-09-21T05:25:04;4.30;;;3.57;;
7503;SDS011;3793;48.136;11.536;2022-09-21T05:27:30;5.33;;;3.10;;
7503;SDS011;3793;48.136;11.536;2022-09-21T05:29:59;6.27;;;3.60;;
7503;SDS011;3793;48.136;11.536;2022-09-21T05:32:26;7.23;;;3.47;;
7503;SDS011;3793;48.136;11.536;2022-09-21T05:34:57;6.43;;;3.67;;
7503;SDS011;3793;48.136;11.536;2022-09-21T05:40:10;9.33;;;3.30;;
7503;SDS011;3793;48.136;11.536;2022-09-21T05:42:38;8.03;;;4.00;;
7503;SDS011;3793;48.136;11.536;2022-09-21T05:45:07;4.83;;;4.07;;
7503;SDS011;3793;48.136;11.536;2022-09-21T05:47:37;6.10;;;3.87;;
7503;SDS011;3793;48.136;11.536;2022-09-21T05:50:05;7.80;;;4.10;;
7503;SDS011;3793;48.136;11.536;2022-09-21T05:52:37;6.43;;;4.00;;
7503;SDS011;3793;48.136;11.536;2022-09-21T05:55:23;8.43;;;4.00;;
7503;SDS011;3793;48.136;11.536;2022-09-21T05:57:53;6.80;;;4.20;;
7503;SDS011;3793;48.136;11.536;2022-09-21T06:00:25;7.43;;;4.03;;
7503;SDS011;3793;48.136;11.536;2022-09-21T06:03:04;9.53;;;4.40;;
7503;SDS011;3793;48.136;11.536;2022-09-21T06:05:36;7.13;;;4.60;;
7503;SDS011;3793;48.136;11.536;2022-09-21T06:08:02;10.20;;;4.70;;
7503;SDS011;3793;48.136;11.536;2022-09-21T06:10:31;11.50;;;5.03;;
7503;SDS011;3793;48.136;11.536;2022-09-21T06:12:58;10.23;;;4.87;;
7503;SDS011;3793;48.136;11.536;2022-09-21T06:15:27;9.87;;;6.07;;
7503;SDS011;3793;48.136;11.536;2022-09-21T06:17:53;7.93;;;5.20;;
7503;SDS011;3793;48.136;11.536;2022-09-21T06:20:21;9.73;;;5.23;;
7503;SDS011;3793;48.136;11.536;2022-09-21T06:22:49;11.40;;;5.60;;
7503;SDS011;3793;48.136;11.536;2022-09-21T06:25:15;12.43;;;4.70;;
7503;SDS011;3793;48.136;11.536;2022-09-21T06:27:44;10.80;;;5.47;;
7503;SDS011;3793;48.136;11.536;2022-09-21T06:30:11;9.83;;;4.67;;
7503;SDS011;3793;48.136;11.536;2022-09-21T06:32:39;6.50;;;4.30;;
7503;SDS011;3793;48.136;11.536;2022-09-21T06:35:06;11.00;;;5.13;;
7503;SDS011;3793;48.136;11.536;2022-09-21T06:37:32;7.20;;;4.23;;
7503;SDS011;3793;48.136;11.536;2022-09-21T06:39:59;7.83;;;4.30;;
7503;SDS011;3793;48.136;11.536;2022-09-21T06:42:26;9.43;;;4.53;;
7503;SDS011;3793;48.136;11.536;2022-09-21T06:44:53;7.10;;;3.83;;
7503;SDS011;3793;48.136;11.536;2022-09-21T06:47:19;6.67;;;4.03;;
7503;SDS011;3793;48.136;11.536;2022-09-21T06:49:47;10.67;;;4.30;;
7503;SDS011;3793;48.136;11.536;2022-09-21T06:52:14;9.77;;;4.10;;
7503;SDS011;3793;48.136;11.536;2022-09-21T06:54:41;6.30;;;4.13;;
7503;SDS011;3793;48.136;11.536;2022-09-21T06:57:08;7.70;;;4.70;;
7503;SDS011;3793;48.136;11.536;2022-09-21T06:59:34;8.90;;;4.30;;
7503;SDS011;3793;48.136;11.536;2022-09-21T07:02:01;7.27;;;4.50;;
7503;SDS011;3793;48.136;11.536;2022-09-21T07:04:29;4.90;;;3.70;;
7503;SDS011;3793;48.136;11.536;2022-09-21T07:06:58;6.50;;;4.10;;
7503;SDS011;3793;48.136;11.536;2022-09-21T07:09:25;7.57;;;4.13;;
7503;SDS011;3793;48.136;11.536;2022-09-21T07:11:51;5.43;;;4.20;;
7503;SDS011;3793;48.136;11.536;2022-09-21T07:14:18;5.87;;;3.87;;
7503;SDS011;3793;48.136;11.536;2022-09-21T07:16:48;6.73;;;3.70;;
7503;SDS011;3793;48.136;11.536;2022-09-21T07:19:15;8.23;;;3.50;;
7503;SDS011;3793;48.136;11.536;2022-09-21T07:21:41;5.57;;;3.57;;
7503;SDS011;3793;48.136;11.536;2022-09-21T07:24:10;6.20;;;3.30;;
7503;SDS011;3793;48.136;11.536;2022-09-21T07:26:36;7.33;;;3.87;;
7503;SDS011;3793;48.136;11.536;2022-09-21T07:29:03;5.47;;;3.47;;
7503;SDS011;3793;48.136;11.536;2022-09-21T07:31:29;4.47;;;3.20;;
7503;SDS011;3793;48.136;11.536;2022-09-21T07:33:56;4.20;;;3.67;;
7503;SDS011;3793;48.136;11.536;2022-09-21T07:36:23;6.43;;;3.27;;
7503;SDS011;3793;48.136;11.536;2022-09-21T07:38:50;4.90;;;3.50;;
7503;SDS011;3793;48.136;11.536;2022-09-21T07:41:19;5.43;;;3.60;;
7503;SDS011;3793;48.136;11.536;2022-09-21T07:43:45;3.57;;;3.07;;
7503;SDS011;3793;48.136;11.536;2022-09-21T07:46:13;7.13;;;2.90;;
7503;SDS011;3793;48.136;11.536;2022-09-21T07:48:40;6.77;;;2.70;;
7503;SDS011;3793;48.136;11.536;2022-09-21T07:51:07;5.77;;;2.93;;
7503;SDS011;3793;48.136;11.536;2022-09-21T07:53:34;3.70;;;2.60;;
7503;SDS011;3793;48.136;11.536;2022-09-21T07:56:02;4.63;;;2.90;;
7503;SDS011;3793;48.136;11.536;2022-09-21T07:58:30;4.10;;;2.73;;
7503;SDS011;3793;48.136;11.536;2022-09-21T08:01:14;8.03;;;3.20;;
7503;SDS011;3793;48.136;11.536;2022-09-21T08:03:41;4.27;;;2.50;;
7503;SDS011;3793;48.136;11.536;2022-09-21T08:06:08;3.53;;;2.00;;
7503;SDS011;3793;48.136;11.536;2022-09-21T08:08:34;3.30;;;2.43;;
7503;SDS011;3793;48.136;11.536;2022-09-21T08:11:02;3.87;;;2.30;;
7503;SDS011;3793;48.136;11.536;2022-09-21T08:13:30;3.93;;;1.90;;
7503;SDS011;3793;48.136;11.536;2022-09-21T08:15:57;5.53;;;2.33;;
7503;SDS011;3793;48.136;11.536;2022-09-21T08:18:24;3.57;;;2.10;;
7503;SDS011;3793;48.136;11.536;2022-09-21T08:20:54;4.07;;;2.30;;
7503;SDS011;3793;48.136;11.536;2022-09-21T08:23:21;6.80;;;2.00;;
7503;SDS011;3793;48.136;11.536;2022-09-21T08:25:48;3.47;;;1.70;;
7503;SDS011;3793;48.136;11.536;2022-09-21T08:28:14;3.13;;;2.20;;
7503;SDS011;3793;48.136;11.536;2022-09-21T08:30:44;2.23;;;1.93;;
7503;SDS011;3793;48.136;11.536;2022-09-21T08:33:10;4.63;;;2.23;;
7503;SDS011;3793;48.136;11.536;2022-09-21T08:35:37;2.47;;;1.60;;
7503;SDS011;3793;48.136;11.536;2022-09-21T08:38:04;1.97;;;1.57;;
7503;SDS011;3793;48.136;11.536;2022-09-21T08:40:31;1.53;;;1.20;;
7503;SDS011;3793;48.136;11.536;2022-09-21T08:42:58;3.90;;;2.10;;
7503;SDS011;3793;48.136;11.536;2022-09-21T08:45:28;3.93;;;1.60;;
7503;SDS011;3793;48.136;11.536;2022-09-21T08:47:59;2.13;;;1.53;;
7503;SDS011;3793;48.136;11.536;2022-09-21T08:50:29;1.90;;;1.40;;
7503;SDS011;3793;48.136;11.536;2022-09-21T08:53:00;2.70;;;1.50;;
7503;SDS011;3793;48.136;11.536;2022-09-21T08:55:27;4.90;;;1.70;;
7503;SDS011;3793;48.136;11.536;2022-09-21T08:57:54;4.77;;;1.70;;
7503;SDS011;3793;48.136;11.536;2022-09-21T09:00:21;2.87;;;1.60;;
7503;SDS011;3793;48.136;11.536;2022-09-21T09:02:54;2.73;;;1.50;;
7503;SDS011;3793;48.136;11.536;2022-09-21T09:05:31;2.47;;;1.63;;
7503;SDS011;3793;48.136;11.536;2022-09-21T09:08:07;3.50;;;1.80;;
7503;SDS011;3793;48.136;11.536;2022-09-21T09:10:36;2.73;;;1.90;;
7503;SDS011;3793;48.136;11.536;2022-09-21T09:13:08;2.53;;;1.83;;
7503;SDS011;3793;48.136;11.536;2022-09-21T09:15:43;1.60;;;1.43;;
7503;SDS011;3793;48.136;11.536;2022-09-21T09:18:17;2.63;;;1.40;;
7503;SDS011;3793;48.136;11.536;2022-09-21T09:20:48;2.00;;;1.47;;
7503;SDS011;3793;48.136;11.536;2022-09-21T09:23:18;5.07;;;1.80;;
7503;SDS011;3793;48.136;11.536;2022-09-21T09:25:48;2.33;;;1.13;;
7503;SDS011;3793;48.136;11.536;2022-09-21T09:28:20;2.77;;;1.30;;
7503;SDS011;3793;48.136;11.536;2022-09-21T09:30:51;4.90;;;1.47;;
7503;SDS011;3793;48.136;11.536;2022-09-21T09:33:22;2.33;;;1.27;;
7503;SDS011;3793;48.136;11.536;2022-09-21T09:35:53;3.07;;;1.33;;
7503;SDS011;3793;48.136;11.536;2022-09-21T09:38:23;4.40;;;1.60;;
7503;SDS011;3793;48.136;11.536;2022-09-21T09:40:55;4.90;;;1.43;;
7503;SDS011;3793;48.136;11.536;2022-09-21T09:43:29;1.33;;;1.00;;
7503;SDS011;3793;48.136;11.536;2022-09-21T09:46:00;1.97;;;0.97;;
7503;SDS011;3793;48.136;11.536;2022-09-21T09:48:32;3.57;;;1.10;;
7503;SDS011;3793;48.136;11.536;2022-09-21T09:51:08;3.30;;;1.30;;
7503;SDS011;3793;48.136;11.536;2022-09-21T09:53:36;1.33;;;1.23;;
7503;SDS011;3793;48.136;11.536;2022-09-21T09:56:03;6.23;;;3.40;;
7503;SDS011;3793;48.136;11.536;2022-09-21T09:58:34;1.70;;;1.27;;
7503;SDS011;3793;48.136;11.536;2022-09-21T10:01:02;1.47;;;1.10;;
7503;SDS011;3793;48.136;11.536;2022-09-21T10:03:29;2.27;;;1.30;;
7503;SDS011;3793;48.136;11.536;2022-09-21T10:05:56;2.60;;;1.30;;
7503;SDS011;3793;48.136;11.536;2022-09-21T10:08:28;1.40;;;1.07;;
7503;SDS011;3793;48.136;11.536;2022-09-21T10:10:58;2.53;;;1.30;;
7503;SDS011;3793;48.136;11.536;2022-09-21T10:13:26;3.87;;;1.53;;
7503;SDS011;3793;48.136;11.536;2022-09-21T10:15:54;3.20;;;1.40;;
7503;SDS011;3793;48.136;11.536;2022-09-21T10:18:23;2.57;;;1.37;;
7503;SDS011;3793;48.136;11.536;2022-09-21T10:20:51;1.10;;;1.00;;
7503;SDS011;3793;48.136;11.536;2022-09-21T10:23:19;2.50;;;1.07;;
7503;SDS011;3793;48.136;11.536;2022-09-21T10:25:53;1.53;;;1.00;;
7503;SDS011;3793;48.136;11.536;2022-09-21T10:28:19;3.67;;;0.93;;
7503;SDS011;3793;48.136;11.536;2022-09-21T10:30:47;1.17;;;1.03;;
7503;SDS011;3793;48.136;11.536;2022-09-21T10:33:17;2.77;;;1.70;;
7503;SDS011;3793;48.136;11.536;2022-09-21T10:35:47;1.80;;;1.47;;
7503;SDS011;3793;48.136;11.536;2022-09-21T10:38:15;2.70;;;1.50;;
7503;SDS011;3793;48.136;11.536;2022-09-21T10:40:42;4.67;;;1.73;;
7503;SDS011;3793;48.136;11.536;2022-09-21T10:43:22;3.17;;;1.30;;
7503;SDS011;3793;48.136;11.536;2022-09-21T10:45:52;2.30;;;1.63;;
7503;SDS011;3793;48.136;11.536;2022-09-21T10:48:20;3.57;;;1.40;;
7503;SDS011;3793;48.136;11.536;2022-09-21T10:50:47;2.93;;;1.73;;
7503;SDS011;3793;48.136;11.536;2022-09-21T10:53:18;2.33;;;1.20;;
7503;SDS011;3793;48.136;11.536;2022-09-21T10:55:49;3.07;;;1.30;;
7503;SDS011;3793;48.136;11.536;2022-09-21T10:58:16;2.00;;;1.40;;
7503;SDS011;3793;48.136;11.536;2022-09-21T11:00:45;1.90;;;1.50;;
7503;SDS011;3793;48.136;11.536;2022-09-21T11:03:36;2.20;;;1.33;;
7503;SDS011;3793;48.136;11.536;2022-09-21T11:06:08;1.93;;;1.03;;
7503;SDS011;3793;48.136;11.536;2022-09-21T11:08:38;3.90;;;1.40;;
7503;SDS011;3793;48.136;11.536;2022-09-21T11:11:09;2.67;;;1.20;;
7503;SDS011;3793;48.136;11.536;2022-09-21T11:13:40;2.23;;;1.07;;
7503;SDS011;3793;48.136;11.536;2022-09-21T11:16:12;2.63;;;1.20;;
7503;SDS011;3793;48.136;11.536;2022-09-21T11:18:42;1.50;;;1.20;;
7503;SDS011;3793;48.136;11.536;2022-09-21T11:21:12;1.80;;;1.20;;
7503;SDS011;3793;48.136;11.536;2022-09-21T11:23:43;2.40;;;1.30;;
7503;SDS011;3793;48.136;11.536;2022-09-21T11:26:14;1.70;;;1.17;;
7503;SDS011;3793;48.136;11.536;2022-09-21T11:28:45;4.63;;;1.30;;
7503;SDS011;3793;48.136;11.536;2022-09-21T11:34:08;1.87;;;1.10;;
7503;SDS011;3793;48.136;11.536;2022-09-21T11:36:42;2.30;;;0.97;;
7503;SDS011;3793;48.136;11.536;2022-09-21T11:39:13;1.97;;;1.10;;
7503;SDS011;3793;48.136;11.536;2022-09-21T11:41:49;1.37;;;1.07;;
7503;SDS011;3793;48.136;11.536;2022-09-21T11:47:02;1.13;;;1.03;;
7503;SDS011;3793;48.136;11.536;2022-09-21T11:49:37;1.43;;;1.00;;
7503;SDS011;3793;48.136;11.536;2022-09-21T11:52:08;2.43;;;1.30;;
7503;SDS011;3793;48.136;11.536;2022-09-21T11:54:42;2.17;;;1.33;;
7503;SDS011;3793;48.136;11.536;2022-09-21T11:57:14;2.40;;;1.13;;
7503;SDS011;3793;48.136;11.536;2022-09-21T11:59:49;3.43;;;1.10;;
7503;SDS011;3793;48.136;11.536;2022-09-21T12:02:25;4.97;;;1.10;;
7503;SDS011;3793;48.136;11.536;2022-09-21T12:04:59;2.67;;;1.20;;
7503;SDS011;3793;48.136;11.536;2022-09-21T12:07:35;1.33;;;1.10;;
7503;SDS011;3793;48.136;11.536;2022-09-21T12:10:18;1.20;;;1.10;;
7503;SDS011;3793;48.136;11.536;2022-09-21T12:12:51;2.13;;;1.07;;
7503;SDS011;3793;48.136;11.536;2022-09-21T12:15:20;1.50;;;1.10;;
7503;SDS011;3793;48.136;11.536;2022-09-21T12:17:49;2.17;;;0.80;;
7503;SDS011;3793;48.136;11.536;2022-09-21T12:20:22;2.60;;;1.30;;
7503;SDS011;3793;48.136;11.536;2022-09-21T12:22:55;3.73;;;0.80;;
7503;SDS011;3793;48.136;11.536;2022-09-21T12:25:24;1.07;;;0.60;;
7503;SDS011;3793;48.136;11.536;2022-09-21T12:27:51;0.95;;;0.93;;
7503;SDS011;3793;48.136;11.536;2022-09-21T12:30:20;2.70;;;1.23;;
7503;SDS011;3793;48.136;11.536;2022-09-21T12:32:49;1.10;;;0.80;;
7503;SDS011;3793;48.136;11.536;2022-09-21T12:35:18;1.73;;;0.97;;
7503;SDS011;3793;48.136;11.536;2022-09-21T12:37:49;1.50;;;1.00;;
7503;SDS011;3793;48.136;11.536;2022-09-21T12:40:18;2.67;;;0.80;;
7503;SDS011;3793;48.136;11.536;2022-09-21T12:42:54;0.83;;;0.80;;
7503;SDS011;3793;48.136;11.536;2022-09-21T12:45:24;1.17;;;0.70;;
7503;SDS011;3793;48.136;11.536;2022-09-21T12:47:55;1.53;;;0.90;;
7503;SDS011;3793;48.136;11.536;2022-09-21T12:50:24;0.73;;;0.73;;
7503;SDS011;3793;48.136;11.536;2022-09-21T12:52:53;2.23;;;0.80;;
7503;SDS011;3793;48.136;11.536;2022-09-21T12:55:28;1.00;;;0.90;;
7503;SDS011;3793;48.136;11.536;2022-09-21T12:57:59;1.03;;;0.70;;
7503;SDS011;3793;48.136;11.536;2022-09-21T13:00:28;1.80;;;1.20;;
7503;SDS011;3793;48.136;11.536;2022-09-21T13:02:56;2.37;;;1.07;;
7503;SDS011;3793;48.136;11.536;2022-09-21T13:05:29;1.37;;;0.90;;
7503;SDS011;3793;48.136;11.536;2022-09-21T13:08:01;0.93;;;0.80;;
7503;SDS011;3793;48.136;11.536;2022-09-21T13:10:40;1.70;;;0.97;;
7503;SDS011;3793;48.136;11.536;2022-09-21T13:13:15;2.33;;;0.70;;
7503;SDS011;3793;48.136;11.536;2022-09-21T13:15:43;0.90;;;0.70;;
7503;SDS011;3793;48.136;11.536;2022-09-21T13:18:17;1.13;;;1.03;;
7503;SDS011;3793;48.136;11.536;2022-09-21T13:20:45;2.20;;;0.87;;
7503;SDS011;3793;48.136;11.536;2022-09-21T13:23:14;1.77;;;0.93;;
7503;SDS011;3793;48.136;11.536;2022-09-21T13:25:41;1.87;;;1.03;;
7503;SDS011;3793;48.136;11.536;2022-09-21T13:28:17;0.77;;;0.73;;
7503;SDS011;3793;48.136;11.536;2022-09-21T13:30:47;1.27;;;0.73;;
7503;SDS011;3793;48.136;11.536;2022-09-21T13:33:30;1.80;;;0.83;;
7503;SDS011;3793;48.136;11.536;2022-09-21T13:39:03;2.10;;;1.17;;
7503;SDS011;3793;48.136;11.536;2022-09-21T13:41:38;2.00;;;0.90;;
7503;SDS011;3793;48.136;11.536;2022-09-21T13:44:12;1.70;;;0.87;;
7503;SDS011;3793;48.136;11.536;2022-09-21T13:49:42;1.53;;;0.93;;
7503;SDS011;3793;48.136;11.536;2022-09-21T13:52:21;0.60;;;0.60;;
7503;SDS011;3793;48.136;11.536;2022-09-21T13:54:52;3.00;;;1.23;;
7503;SDS011;3793;48.136;11.536;2022-09-21T13:57:23;1.20;;;0.90;;
7503;SDS011;3793;48.136;11.536;2022-09-21T13:59:59;1.43;;;0.90;;
7503;SDS011;3793;48.136;11.536;2022-09-21T14:02:28;1.17;;;0.80;;
7503;SDS011;3793;48.136;11.536;2022-09-21T14:07:27;3.13;;;1.20;;
7503;SDS011;3793;48.136;11.536;2022-09-21T14:09:56;1.17;;;1.00;;
7503;SDS011;3793;48.136;11.536;2022-09-21T14:12:24;0.83;;;0.73;;
7503;SDS011;3793;48.136;11.536;2022-09-21T14:15:08;1.17;;;0.90;;
7503;SDS011;3793;48.136;11.536;2022-09-21T14:17:37;1.30;;;0.90;;
7503;SDS011;3793;48.136;11.536;2022-09-21T14:20:05;4.20;;;1.33;;
7503;SDS011;3793;48.136;11.536;2022-09-21T14:23:09;1.37;;;0.67;;
7503;SDS011;3793;48.136;11.536;2022-09-21T14:25:47;1.60;;;1.23;;
7503;SDS011;3793;48.136;11.536;2022-09-21T14:28:15;1.10;;;1.00;;
7503;SDS011;3793;48.136;11.536;2022-09-21T14:30:47;1.60;;;0.67;;
7503;SDS011;3793;48.136;11.536;2022-09-21T14:33:19;1.20;;;0.68;;
7503;SDS011;3793;48.136;11.536;2022-09-21T14:35:47;2.22;;;0.85;;
7503;SDS011;3793;48.136;11.536;2022-09-21T14:38:18;2.60;;;0.90;;
7503;SDS011;3793;48.136;11.536;2022-09-21T14:40:46;1.67;;;0.82;;
7503;SDS011;3793;48.136;11.536;2022-09-21T14:43:15;1.10;;;0.60;;
7503;SDS011;3793;48.136;11.536;2022-09-21T14:45:46;0.60;;;0.60;;
7503;SDS011;3793;48.136;11.536;2022-09-21T14:48:20;2.22;;;1.05;;
7503;SDS011;3793;48.136;11.536;2022-09-21T14:50:56;1.95;;;0.73;;
7503;SDS011;3793;48.136;11.536;2022-09-21T14:53:30;0.77;;;0.77;;
7503;SDS011;3793;48.136;11.536;2022-09-21T14:59:09;1.67;;;0.98;;
7503;SDS011;3793;48.136;11.536;2022-09-21T15:01:39;1.02;;;0.90;;
7503;SDS011;3793;48.136;11.536;2022-09-21T15:04:23;1.70;;;1.08;;
7503;SDS011;3793;48.136;11.536;2022-09-21T15:06:54;1.92;;;1.40;;
7503;SDS011;3793;48.136;11.536;2022-09-21T15:09:43;2.05;;;1.00;;
7503;SDS011;3793;48.136;11.536;2022-09-21T15:12:31;1.60;;;0.80;;
7503;SDS011;3793;48.136;11.536;2022-09-21T15:15:04;1.23;;;0.85;;
7503;SDS011;3793;48.136;11.536;2022-09-21T15:17:35;1.48;;;1.13;;
7503;SDS011;3793;48.136;11.536;2022-09-21T15:20:20;1.10;;;0.90;;
7503;SDS011;3793;48.136;11.536;2022-09-21T15:22:47;1.00;;;0.80;;
7503;SDS011;3793;48.136;11.536;2022-09-21T15:25:13;1.58;;;0.93;;
7503;SDS011;3793;48.136;11.536;2022-09-21T15:27:41;0.73;;;0.73;;
7503;SDS011;3793;48.136;11.536;2022-09-21T15:30:17;1.27;;;0.70;;
7503;SDS011;3793;48.136;11.536;2022-09-21T15:32:45;2.03;;;1.00;;
7503;SDS011;3793;48.136;11.536;2022-09-21T15:35:15;0.88;;;0.85;;
7503;SDS011;3793;48.136;11.536;2022-09-21T15:37:42;2.40;;;1.30;;